createdAt,value
2017-04-06T00:00:18.152Z,7.6
2017-04-06T00:01:20.496Z,7.6
2017-04-06T00:02:23.347Z,7.6
2017-04-06T00:03:25.986Z,7.7
2017-04-06T00:04:28.331Z,7.8
2017-04-06T00:05:31.181Z,7.7
2017-04-06T00:06:34.036Z,7.6
2017-04-06T00:07:36.243Z,7.6
2017-04-06T00:08:39.341Z,7.6
2017-04-06T00:09:41.547Z,7.6
2017-04-06T00:10:44.396Z,7.6
2017-04-06T00:11:46.736Z,7.6
2017-04-06T00:12:49.581Z,7.6
2017-04-06T00:13:52.594Z,7.6
2017-04-06T00:14:54.930Z,7.5
2017-04-06T00:15:57.272Z,7.5
2017-04-06T00:17:00.117Z,7.5
2017-04-06T00:18:02.838Z,7.4
2017-04-06T00:19:05.348Z,7.4
2017-04-06T00:20:08.194Z,7.5
2017-04-06T00:21:10.531Z,7.5
2017-04-06T00:22:13.373Z,7.4
2017-04-06T00:23:15.717Z,7.5
2017-04-06T00:24:18.864Z,7.5
2017-04-06T00:26:23.644Z,7.5
2017-04-06T00:28:28.893Z,7.5
2017-04-06T00:29:32.036Z,7.5
2017-04-06T00:30:34.376Z,7.5
2017-04-06T00:31:36.720Z,7.5
2017-04-06T00:32:39.560Z,7.5
2017-04-06T00:33:41.904Z,7.5
2017-04-06T00:34:45.054Z,7.5
2017-04-06T00:35:47.395Z,7.5
2017-04-06T00:36:49.734Z,7.5
2017-04-06T00:37:52.577Z,7.5
2017-04-06T00:38:55.423Z,7.5
2017-04-06T00:39:58.076Z,7.4
2017-04-06T00:41:00.287Z,7.4
2017-04-06T00:42:03.152Z,7.4
2017-04-06T00:43:05.498Z,7.4
2017-04-06T00:44:08.343Z,7.4
2017-04-06T00:45:10.857Z,7.5
2017-04-06T00:46:13.703Z,7.5
2017-04-06T00:47:16.044Z,7.5
2017-04-06T00:48:18.886Z,7.5
2017-04-06T00:49:21.225Z,7.5
2017-04-06T00:50:24.320Z,7.5
2017-04-06T00:51:26.659Z,7.5
2017-04-06T00:52:29.510Z,7.4
2017-04-06T00:54:34.624Z,7.3
2017-04-06T00:55:37.264Z,7.3
2017-04-06T00:56:39.608Z,7.3
2017-04-06T00:57:42.463Z,7.4
2017-04-06T00:58:44.805Z,7.3
2017-04-06T00:59:47.648Z,7.3
2017-04-06T01:00:50.041Z,7.3
2017-04-06T01:01:53.321Z,7.3
2017-04-06T01:02:55.665Z,7.4
2017-04-06T01:03:58.565Z,7.3
2017-04-06T01:05:00.916Z,7.3
2017-04-06T01:06:03.515Z,7.3
2017-04-06T01:07:05.858Z,7.3
2017-04-06T01:08:08.702Z,7.3
2017-04-06T01:09:11.050Z,7.3
2017-04-06T01:10:13.890Z,7.4
2017-04-06T01:11:16.489Z,7.3
2017-04-06T01:12:18.835Z,7.3
2017-04-06T01:13:22.237Z,7.3
2017-04-06T01:14:24.073Z,7.3
2017-04-06T01:15:26.920Z,7.3
2017-04-06T01:16:30.066Z,7.4
2017-04-06T01:17:32.414Z,7.4
2017-04-06T01:18:34.759Z,7.4
2017-04-06T01:19:37.599Z,7.4
2017-04-06T01:20:39.938Z,7.4
2017-04-06T01:21:43.038Z,7.4
2017-04-06T01:22:45.381Z,7.4
2017-04-06T01:23:47.720Z,7.4
2017-04-06T01:25:52.973Z,7.3
2017-04-06T01:26:56.070Z,7.3
2017-04-06T01:27:58.413Z,7.3
2017-04-06T01:29:00.750Z,7.3
2017-04-06T01:30:03.596Z,7.3
2017-04-06T01:31:06.308Z,7.3
2017-04-06T01:32:08.952Z,7.3
2017-04-06T01:33:11.291Z,7.3
2017-04-06T01:34:14.111Z,7.3
2017-04-06T01:35:16.458Z,7.3
2017-04-06T01:36:19.554Z,7.4
2017-04-06T01:37:22.203Z,7.4
2017-04-06T01:38:24.542Z,7.4
2017-04-06T01:39:27.393Z,7.4
2017-04-06T01:40:29.608Z,7.3
2017-04-06T01:41:32.461Z,7.3
2017-04-06T01:42:35.665Z,7.3
2017-04-06T01:43:37.503Z,7.3
2017-04-06T01:44:40.345Z,7.3
2017-04-06T01:45:42.683Z,7.3
2017-04-06T01:46:45.528Z,7.3
2017-04-06T01:47:48.627Z,7.3
2017-04-06T01:48:50.965Z,7.3
2017-04-06T01:49:53.171Z,7.2
2017-04-06T01:50:56.015Z,7.2
2017-04-06T01:51:58.364Z,7.3
2017-04-06T01:53:01.466Z,7.3
2017-04-06T01:54:03.835Z,7.2
2017-04-06T01:55:06.689Z,7.2
2017-04-06T01:56:08.893Z,7.2
2017-04-06T01:57:11.741Z,7.2
2017-04-06T01:58:14.387Z,7.2
2017-04-06T01:59:16.728Z,7.2
2017-04-06T02:00:19.572Z,7.2
2017-04-06T02:01:22.288Z,7.2
2017-04-06T02:02:24.999Z,7.2
2017-04-06T02:03:27.642Z,7.1
2017-04-06T02:04:29.990Z,7.2
2017-04-06T02:05:32.838Z,7.2
2017-04-06T02:06:35.734Z,7.2
2017-04-06T02:07:37.951Z,7.1
2017-04-06T02:08:40.558Z,7.2
2017-04-06T02:09:42.909Z,7.1
2017-04-06T02:10:45.758Z,7.2
2017-04-06T02:11:48.474Z,7.2
2017-04-06T02:12:50.833Z,7.2
2017-04-06T02:13:53.941Z,7.1
2017-04-06T02:14:56.280Z,7.1
2017-04-06T02:15:58.997Z,7.1
2017-04-06T02:17:01.903Z,7.1
2017-04-06T02:18:04.279Z,7.1
2017-04-06T02:19:06.877Z,7.1
2017-04-06T02:20:09.087Z,7.1
2017-04-06T02:21:11.937Z,7.1
2017-04-06T02:22:14.791Z,7.1
2017-04-06T02:23:17.140Z,7.1
2017-04-06T02:24:20.244Z,7.1
2017-04-06T02:25:22.458Z,7.1
2017-04-06T02:26:25.175Z,7.1
2017-04-06T02:27:27.523Z,7
2017-04-06T02:29:32.815Z,7
2017-04-06T02:30:35.665Z,7
2017-04-06T02:31:38.011Z,7
2017-04-06T02:32:40.730Z,7
2017-04-06T02:33:43.076Z,7
2017-04-06T02:34:46.224Z,7
2017-04-06T02:35:48.574Z,7
2017-04-06T02:36:50.921Z,7
2017-04-06T02:37:53.770Z,7
2017-04-06T02:38:56.351Z,6.9
2017-04-06T02:39:59.319Z,6.9
2017-04-06T02:41:01.691Z,6.9
2017-04-06T02:42:04.042Z,7
2017-04-06T02:43:06.754Z,7
2017-04-06T02:44:09.604Z,6.9
2017-04-06T02:45:12.251Z,6.9
2017-04-06T02:46:14.595Z,7
2017-04-06T02:47:17.447Z,7
2017-04-06T02:48:19.789Z,6.9
2017-04-06T02:49:22.642Z,6.9
2017-04-06T02:50:25.238Z,6.8
2017-04-06T02:51:28.142Z,6.9
2017-04-06T02:52:30.483Z,6.8
2017-04-06T02:53:32.696Z,6.8
2017-04-06T02:54:35.547Z,6.8
2017-04-06T02:55:38.700Z,6.8
2017-04-06T02:57:43.454Z,6.8
2017-04-06T02:58:46.302Z,6.8
2017-04-06T02:59:48.651Z,6.8
2017-04-06T03:00:51.804Z,6.8
2017-04-06T03:01:53.648Z,6.8
2017-04-06T03:02:56.497Z,6.8
2017-04-06T03:03:59.346Z,6.7
2017-04-06T03:05:01.693Z,6.7
2017-04-06T03:06:04.798Z,6.7
2017-04-06T03:07:07.172Z,6.7
2017-04-06T03:08:09.387Z,6.8
2017-04-06T03:09:12.239Z,6.8
2017-04-06T03:10:14.585Z,6.7
2017-04-06T03:11:17.738Z,6.7
2017-04-06T03:12:20.084Z,6.7
2017-04-06T03:14:25.205Z,6.7
2017-04-06T03:15:27.888Z,6.7
2017-04-06T03:16:30.494Z,6.8
2017-04-06T03:17:32.843Z,6.7
2017-04-06T03:18:35.688Z,6.7
2017-04-06T03:19:38.037Z,6.7
2017-04-06T03:20:40.888Z,6.6
2017-04-06T03:21:44.042Z,6.6
2017-04-06T03:22:45.887Z,6.6
2017-04-06T03:23:48.735Z,6.7
2017-04-06T03:24:51.083Z,6.6
2017-04-06T03:25:53.934Z,6.6
2017-04-06T03:26:56.902Z,6.6
2017-04-06T03:27:59.253Z,6.7
2017-04-06T03:29:01.593Z,6.6
2017-04-06T03:30:04.442Z,6.6
2017-04-06T03:31:07.157Z,6.6
2017-04-06T03:32:09.754Z,6.7
2017-04-06T03:33:11.971Z,6.7
2017-04-06T03:34:14.821Z,6.7
2017-04-06T03:35:17.170Z,6.6
2017-04-06T03:36:20.018Z,6.6
2017-04-06T03:37:23.120Z,6.6
2017-04-06T03:39:27.872Z,6.6
2017-04-06T03:40:30.080Z,6.6
2017-04-06T03:41:33.490Z,6.6
2017-04-06T03:42:36.142Z,6.6
2017-04-06T03:43:38.494Z,6.6
2017-04-06T03:44:40.836Z,6.6
2017-04-06T03:45:43.683Z,6.6
2017-04-06T03:46:46.033Z,6.6
2017-04-06T03:47:49.701Z,6.6
2017-04-06T03:48:51.542Z,6.6
2017-04-06T03:49:53.889Z,6.6
2017-04-06T03:50:56.742Z,6.6
2017-04-06T03:51:59.090Z,6.6
2017-04-06T03:54:04.651Z,6.6
2017-04-06T03:56:09.403Z,6.5
2017-04-06T03:57:12.296Z,6.6
2017-04-06T03:58:14.509Z,6.5
2017-04-06T03:59:17.612Z,6.4
2017-04-06T04:00:19.957Z,6.5
2017-04-06T04:01:22.812Z,6.5
2017-04-06T04:02:25.160Z,6.5
2017-04-06T04:03:28.008Z,6.5
2017-04-06T04:04:30.613Z,6.5
2017-04-06T04:05:32.960Z,6.5
2017-04-06T04:06:35.678Z,6.5
2017-04-06T04:07:38.023Z,6.5
2017-04-06T04:08:40.870Z,6.5
2017-04-06T04:09:43.526Z,6.5
2017-04-06T04:10:45.879Z,6.5
2017-04-06T04:11:48.730Z,6.5
2017-04-06T04:12:51.079Z,6.5
2017-04-06T04:13:53.930Z,6.5
2017-04-06T04:14:57.136Z,6.5
2017-04-06T04:15:58.983Z,6.5
2017-04-06T04:17:01.831Z,6.5
2017-04-06T04:18:04.177Z,6.5
2017-04-06T04:19:07.025Z,6.5
2017-04-06T04:20:09.674Z,6.5
2017-04-06T04:21:12.017Z,6.5
2017-04-06T04:24:19.678Z,6.5
2017-04-06T04:25:22.778Z,6.5
2017-04-06T04:26:25.127Z,6.4
2017-04-06T04:27:27.845Z,6.3
2017-04-06T04:28:30.057Z,6.3
2017-04-06T04:29:32.918Z,6.4
2017-04-06T04:30:36.013Z,6.4
2017-04-06T04:31:38.359Z,6.3
2017-04-06T04:32:40.570Z,6.3
2017-04-06T04:33:43.417Z,6.3
2017-04-06T04:34:45.762Z,6.3
2017-04-06T04:35:48.870Z,6.3
2017-04-06T04:37:53.620Z,6.3
2017-04-06T04:38:56.334Z,6.3
2017-04-06T04:39:59.044Z,6.3
2017-04-06T04:41:01.692Z,6.3
2017-04-06T04:42:04.042Z,6.3
2017-04-06T04:43:06.896Z,6.3
2017-04-06T04:44:09.241Z,6.3
2017-04-06T04:45:12.093Z,6.2
2017-04-06T04:46:14.421Z,6.3
2017-04-06T04:47:17.141Z,6.3
2017-04-06T04:48:19.988Z,6.3
2017-04-06T04:49:22.063Z,6.2
2017-04-06T04:50:24.912Z,6.3
2017-04-06T04:51:28.025Z,6.3
2017-04-06T04:52:30.106Z,6.2
2017-04-06T04:53:32.824Z,6.2
2017-04-06T04:54:35.674Z,6.2
2017-04-06T04:55:38.026Z,6.3
2017-04-06T04:56:41.047Z,6.3
2017-04-06T04:57:43.395Z,6.3
2017-04-06T04:58:45.745Z,6.3
2017-04-06T04:59:48.598Z,6.3
2017-04-06T05:00:51.015Z,6.3
2017-04-06T05:01:53.707Z,6.3
2017-04-06T05:02:56.058Z,6.3
2017-04-06T05:03:58.911Z,6.3
2017-04-06T05:05:01.816Z,6.3
2017-04-06T05:06:04.164Z,6.3
2017-04-06T05:07:06.762Z,6.2
2017-04-06T05:08:09.047Z,6.2
2017-04-06T05:09:11.900Z,6.2
2017-04-06T05:10:14.107Z,6.2
2017-04-06T05:11:16.959Z,6.2
2017-04-06T05:12:20.066Z,6.2
2017-04-06T05:13:22.144Z,6.2
2017-04-06T05:14:24.993Z,6.2
2017-04-06T05:15:27.911Z,6.3
2017-04-06T05:16:30.123Z,6.3
2017-04-06T05:17:32.767Z,6.3
2017-04-06T05:18:35.113Z,6.2
2017-04-06T05:19:37.963Z,6.2
2017-04-06T05:20:40.680Z,6.2
2017-04-06T05:21:43.026Z,6.2
2017-04-06T05:22:46.184Z,6.2
2017-04-06T05:23:48.028Z,6.3
2017-04-06T05:24:50.879Z,6.3
2017-04-06T05:25:53.591Z,6.3
2017-04-06T05:26:55.938Z,6.3
2017-04-06T05:29:01.358Z,6.3
2017-04-06T05:31:06.621Z,6.3
2017-04-06T05:32:08.828Z,6.3
2017-04-06T05:33:11.539Z,6.3
2017-04-06T05:34:14.691Z,6.3
2017-04-06T05:35:17.044Z,6.3
2017-04-06T05:36:19.391Z,6.3
2017-04-06T05:37:22.100Z,6.3
2017-04-06T05:38:24.503Z,6.3
2017-04-06T05:39:27.653Z,6.3
2017-04-06T05:40:29.998Z,6.3
2017-04-06T05:41:32.347Z,6.2
2017-04-06T05:42:35.197Z,6.2
2017-04-06T05:43:37.545Z,6.2
2017-04-06T05:44:40.698Z,6.2
2017-04-06T05:45:43.043Z,6.2
2017-04-06T05:46:45.391Z,6.2
2017-04-06T05:47:48.279Z,6.2
2017-04-06T05:48:50.626Z,6.3
2017-04-06T05:49:53.725Z,6.3
2017-04-06T05:50:56.633Z,6.3
2017-04-06T05:51:58.477Z,6.3
2017-04-06T05:53:01.324Z,6.3
2017-04-06T05:54:03.674Z,6.3
2017-04-06T05:56:09.231Z,6.3
2017-04-06T05:58:13.980Z,6.4
2017-04-06T05:59:16.829Z,6.4
2017-04-06T06:00:19.042Z,6.4
2017-04-06T06:01:21.924Z,6.4
2017-04-06T06:02:24.136Z,6.4
2017-04-06T06:03:26.984Z,6.4
2017-04-06T06:04:29.834Z,6.5
2017-04-06T06:05:32.180Z,6.5
2017-04-06T06:06:35.756Z,6.5
2017-04-06T06:07:37.599Z,6.5
2017-04-06T06:08:39.944Z,6.5
2017-04-06T06:09:42.789Z,6.5
2017-04-06T06:10:45.500Z,6.5
2017-04-06T06:11:48.019Z,6.5
2017-04-06T06:12:50.375Z,6.5
2017-04-06T06:13:53.086Z,6.5
2017-04-06T06:14:55.935Z,6.5
2017-04-06T06:15:58.279Z,6.5
2017-04-06T06:17:01.381Z,6.5
2017-04-06T06:18:03.728Z,6.5
2017-04-06T06:19:06.077Z,6.5
2017-04-06T06:20:08.797Z,6.5
2017-04-06T06:21:11.141Z,6.5
2017-04-06T06:22:14.112Z,6.5
2017-04-06T06:23:16.462Z,6.5
2017-04-06T06:24:19.309Z,6.5
2017-04-06T06:25:21.655Z,6.4
2017-04-06T06:26:24.372Z,6.5
2017-04-06T06:27:27.521Z,6.5
2017-04-06T06:28:29.364Z,6.5
2017-04-06T06:29:32.217Z,6.5
2017-04-06T06:31:37.339Z,6.5
2017-04-06T06:32:40.442Z,6.5
2017-04-06T06:33:42.788Z,6.5
2017-04-06T06:34:44.998Z,6.5
2017-04-06T06:35:47.780Z,6.5
2017-04-06T06:36:50.494Z,6.5
2017-04-06T06:37:53.140Z,6.5
2017-04-06T06:38:56.049Z,6.5
2017-04-06T06:39:58.259Z,6.6
2017-04-06T06:41:00.607Z,6.6
2017-04-06T06:42:03.333Z,6.6
2017-04-06T06:43:06.440Z,6.6
2017-04-06T06:44:08.854Z,6.6
2017-04-06T06:45:11.200Z,6.6
2017-04-06T06:46:14.053Z,6.6
2017-04-06T06:47:16.397Z,6.6
2017-04-06T06:48:19.549Z,6.6
2017-04-06T06:49:22.457Z,6.6
2017-04-06T06:50:24.301Z,6.6
2017-04-06T06:51:27.072Z,6.6
2017-04-06T06:52:29.418Z,6.6
2017-04-06T06:53:32.568Z,6.6
2017-04-06T06:54:34.783Z,6.6
2017-04-06T06:55:37.130Z,6.6
2017-04-06T06:56:39.983Z,6.6
2017-04-06T06:57:42.325Z,6.6
2017-04-06T06:58:45.475Z,6.6
2017-04-06T06:59:47.689Z,6.6
2017-04-06T07:00:50.538Z,6.6
2017-04-06T07:01:52.753Z,6.6
2017-04-06T07:02:55.603Z,6.6
2017-04-06T07:03:58.831Z,6.7
2017-04-06T07:05:00.672Z,6.7
2017-04-06T07:06:03.527Z,6.7
2017-04-06T07:07:05.872Z,6.6
2017-04-06T07:08:09.164Z,6.6
2017-04-06T07:09:11.666Z,6.6
2017-04-06T07:11:16.415Z,6.7
2017-04-06T07:12:18.762Z,6.7
2017-04-06T07:13:21.475Z,6.8
2017-04-06T07:14:24.577Z,6.8
2017-04-06T07:15:26.924Z,6.9
2017-04-06T07:16:29.272Z,6.9
2017-04-06T07:18:34.526Z,6.9
2017-04-06T07:19:37.629Z,6.9
2017-04-06T07:20:39.977Z,7
2017-04-06T07:21:42.332Z,7
2017-04-06T07:22:45.187Z,7
2017-04-06T07:23:47.549Z,7
2017-04-06T07:24:50.707Z,7.1
2017-04-06T07:25:53.057Z,7.1
2017-04-06T07:26:55.402Z,7.2
2017-04-06T07:27:58.250Z,7.3
2017-04-06T07:29:00.599Z,7.3
2017-04-06T07:30:04.260Z,7.3
2017-04-06T07:32:09.711Z,7.3
2017-04-06T07:33:11.053Z,7.3
2017-04-06T07:34:13.911Z,7.3
2017-04-06T07:35:16.374Z,7.3
2017-04-06T07:36:19.223Z,7.3
2017-04-06T07:37:21.573Z,7.3
2017-04-06T07:38:24.424Z,7.3
2017-04-06T07:39:26.636Z,7.4
2017-04-06T07:40:29.738Z,7.5
2017-04-06T07:41:32.081Z,7.5
2017-04-06T07:42:34.669Z,7.6
2017-04-06T07:43:37.522Z,7.6
2017-04-06T07:44:39.871Z,7.7
2017-04-06T07:45:42.974Z,7.8
2017-04-06T07:47:47.721Z,7.9
2017-04-06T07:48:50.571Z,7.9
2017-04-06T07:49:53.476Z,7.9
2017-04-06T07:50:55.991Z,8
2017-04-06T07:51:58.337Z,8
2017-04-06T07:53:00.549Z,8.1
2017-04-06T07:54:03.400Z,8.1
2017-04-06T07:55:06.248Z,8
2017-04-06T07:56:08.713Z,8
2017-04-06T07:57:11.430Z,8
2017-04-06T07:58:14.843Z,7.9
2017-04-06T08:00:19.092Z,7.9
2017-04-06T08:01:22.111Z,8
2017-04-06T08:02:24.319Z,8
2017-04-06T08:03:27.037Z,8.1
2017-04-06T08:04:29.900Z,8.1
2017-04-06T08:05:32.482Z,8.2
2017-04-06T08:06:35.082Z,8.2
2017-04-06T08:07:37.796Z,8.3
2017-04-06T08:08:40.510Z,8.3
2017-04-06T08:09:42.854Z,8.4
2017-04-06T08:10:45.738Z,8.5
2017-04-06T08:11:48.623Z,8.5
2017-04-06T08:12:50.976Z,8.5
2017-04-06T08:13:53.322Z,8.5
2017-04-06T08:14:56.169Z,8.5
2017-04-06T08:15:58.509Z,8.5
2017-04-06T08:17:01.616Z,8.5
2017-04-06T08:18:03.965Z,8.5
2017-04-06T08:19:06.818Z,8.5
2017-04-06T08:20:09.725Z,8.5
2017-04-06T08:21:11.940Z,8.5
2017-04-06T08:22:14.958Z,8.5
2017-04-06T08:23:17.307Z,8.5
2017-04-06T08:24:19.517Z,8.5
2017-04-06T08:25:22.382Z,8.5
2017-04-06T08:26:25.098Z,8.6
2017-04-06T08:27:28.063Z,8.6
2017-04-06T08:28:30.412Z,8.6
2017-04-06T08:29:32.756Z,8.6
2017-04-06T08:30:35.607Z,8.6
2017-04-06T08:32:41.142Z,8.6
2017-04-06T08:33:43.489Z,8.6
2017-04-06T08:34:46.336Z,8.6
2017-04-06T08:35:48.681Z,8.6
2017-04-06T08:36:51.533Z,8.6
2017-04-06T08:37:54.185Z,8.6
2017-04-06T08:38:56.529Z,8.6
2017-04-06T08:39:59.382Z,8.7
2017-04-06T08:41:02.227Z,8.8
2017-04-06T08:42:04.576Z,8.8
2017-04-06T08:43:07.765Z,8.8
2017-04-06T08:44:10.172Z,8.8
2017-04-06T08:45:12.515Z,8.9
2017-04-06T08:46:15.366Z,9
2017-04-06T08:47:17.715Z,9
2017-04-06T08:48:20.875Z,9
2017-04-06T08:49:23.220Z,9
2017-04-06T08:50:25.597Z,9
2017-04-06T08:51:28.324Z,9
2017-04-06T08:52:31.049Z,9
2017-04-06T08:53:34.198Z,9
2017-04-06T08:54:36.553Z,9
2017-04-06T08:55:38.897Z,9
2017-04-06T08:56:41.755Z,9
2017-04-06T08:57:44.103Z,9
2017-04-06T08:58:47.256Z,9
2017-04-06T08:59:49.598Z,9
2017-04-06T09:00:52.447Z,9
2017-04-06T09:01:54.793Z,9
2017-04-06T09:02:57.639Z,9
2017-04-06T09:04:00.289Z,9
2017-04-06T09:05:02.507Z,9
2017-04-06T09:06:05.358Z,8.9
2017-04-06T09:07:08.209Z,9
2017-04-06T09:08:10.551Z,9
2017-04-06T09:09:14.264Z,9
2017-04-06T09:10:16.136Z,9.1
2017-04-06T09:11:18.907Z,9.1
2017-04-06T09:12:21.254Z,9.1
2017-04-06T09:13:23.963Z,9.1
2017-04-06T09:14:26.610Z,9.2
2017-04-06T09:15:29.358Z,9.1
2017-04-06T09:16:31.773Z,9.1
2017-04-06T09:17:34.626Z,9.1
2017-04-06T09:18:36.974Z,9.2
2017-04-06T09:19:40.682Z,9.2
2017-04-06T09:20:42.261Z,9.2
2017-04-06T09:21:44.978Z,9.1
2017-04-06T09:22:47.694Z,9.1
2017-04-06T09:23:50.413Z,9.1
2017-04-06T09:24:53.006Z,9.1
2017-04-06T09:25:55.858Z,9.1
2017-04-06T09:26:58.207Z,9.1
2017-04-06T09:28:00.789Z,9.1
2017-04-06T09:29:03.505Z,9.1
2017-04-06T09:30:06.472Z,9.1
2017-04-06T09:31:09.384Z,9.1
2017-04-06T09:33:14.133Z,9.1
2017-04-06T09:35:19.689Z,9.1
2017-04-06T09:36:21.906Z,9.1
2017-04-06T09:37:24.755Z,9.1
2017-04-06T09:38:27.609Z,9.1
2017-04-06T09:39:29.953Z,9.1
2017-04-06T09:40:32.929Z,9.1
2017-04-06T09:41:35.278Z,9.1
2017-04-06T09:42:38.131Z,9.1
2017-04-06T09:43:40.711Z,9.1
2017-04-06T09:44:43.987Z,9.1
2017-04-06T09:45:46.084Z,9.1
2017-04-06T09:46:48.429Z,9.1
2017-04-06T09:48:53.691Z,9.1
2017-04-06T09:49:56.544Z,9.1
2017-04-06T09:50:59.144Z,9.1
2017-04-06T09:52:01.994Z,9.1
2017-04-06T09:53:04.345Z,9.1
2017-04-06T09:54:07.258Z,9.1
2017-04-06T09:55:09.605Z,9.1
2017-04-06T09:56:12.756Z,9.1
2017-04-06T09:57:15.099Z,9.1
2017-04-06T09:58:17.447Z,9.1
2017-04-06T09:59:20.852Z,9.1
2017-04-06T10:00:23.065Z,9.1
2017-04-06T10:01:25.667Z,9.1
2017-04-06T10:02:27.874Z,9.2
2017-04-06T10:03:31.094Z,9.2
2017-04-06T10:04:33.460Z,9.3
2017-04-06T10:05:36.309Z,9.2
2017-04-06T10:06:39.324Z,9.2
2017-04-06T10:07:41.537Z,9.1
2017-04-06T10:08:43.745Z,9.1
2017-04-06T10:09:46.463Z,9.1
2017-04-06T10:10:49.307Z,9.1
2017-04-06T10:11:52.326Z,9.2
2017-04-06T10:12:54.670Z,9.2
2017-04-06T10:13:57.554Z,9.2
2017-04-06T10:14:59.907Z,9.1
2017-04-06T10:16:02.487Z,9.2
2017-04-06T10:17:05.590Z,9.2
2017-04-06T10:18:07.800Z,9.2
2017-04-06T10:19:11.206Z,9.2
2017-04-06T10:20:13.050Z,9.3
2017-04-06T10:21:15.907Z,9.3
2017-04-06T10:22:18.933Z,9.3
2017-04-06T10:23:21.286Z,9.3
2017-04-06T10:24:23.505Z,9.3
2017-04-06T10:25:26.378Z,9.3
2017-04-06T10:26:28.960Z,9.3
2017-04-06T10:27:31.986Z,9.3
2017-04-06T10:28:34.331Z,9.3
2017-04-06T10:29:36.737Z,9.3
2017-04-06T10:30:39.594Z,9.3
2017-04-06T10:31:43.001Z,9.3
2017-04-06T10:32:45.094Z,9.2
2017-04-06T10:33:47.441Z,9.2
2017-04-06T10:34:50.296Z,9.2
2017-04-06T10:35:52.952Z,9.2
2017-04-06T10:36:55.301Z,9.3
2017-04-06T10:37:58.458Z,9.3
2017-04-06T10:39:00.806Z,9.3
2017-04-06T10:40:03.021Z,9.3
2017-04-06T10:41:05.877Z,9.3
2017-04-06T10:42:08.724Z,9.3
2017-04-06T10:43:11.693Z,9.4
2017-04-06T10:44:14.042Z,9.4
2017-04-06T10:45:16.392Z,9.5
2017-04-06T10:46:19.245Z,9.5
2017-04-06T10:47:21.962Z,9.5
2017-04-06T10:48:24.484Z,9.4
2017-04-06T10:49:27.334Z,9.4
2017-04-06T10:50:29.679Z,9.4
2017-04-06T10:51:32.524Z,9.4
2017-04-06T10:52:35.239Z,9.4
2017-04-06T10:53:37.891Z,9.4
2017-04-06T10:54:40.635Z,9.5
2017-04-06T10:55:42.906Z,9.5
2017-04-06T10:56:45.759Z,9.5
2017-04-06T10:57:48.604Z,9.6
2017-04-06T10:58:51.824Z,9.6
2017-04-06T10:59:53.664Z,9.6
2017-04-06T11:00:56.384Z,9.6
2017-04-06T11:01:58.736Z,9.6
2017-04-06T11:03:01.590Z,9.6
2017-04-06T11:04:04.758Z,9.6
2017-04-06T11:05:07.111Z,9.6
2017-04-06T11:06:09.323Z,9.6
2017-04-06T11:07:12.168Z,9.6
2017-04-06T11:08:15.018Z,9.6
2017-04-06T11:09:18.228Z,9.6
2017-04-06T11:10:20.075Z,9.6
2017-04-06T11:11:22.934Z,9.6
2017-04-06T11:12:25.292Z,9.6
2017-04-06T11:13:28.145Z,9.7
2017-04-06T11:14:31.295Z,9.7
2017-04-06T11:15:33.522Z,9.7
2017-04-06T11:16:36.240Z,9.7
2017-04-06T11:18:41.498Z,9.8
2017-04-06T11:19:44.708Z,9.8
2017-04-06T11:20:46.549Z,9.8
2017-04-06T11:21:49.405Z,9.9
2017-04-06T11:22:51.754Z,9.9
2017-04-06T11:23:54.607Z,9.9
2017-04-06T11:24:57.707Z,9.8
2017-04-06T11:26:00.057Z,9.8
2017-04-06T11:27:02.272Z,9.9
2017-04-06T11:28:05.127Z,9.9
2017-04-06T11:29:07.974Z,9.9
2017-04-06T11:30:10.490Z,10
2017-04-06T11:31:13.203Z,9.9
2017-04-06T11:32:16.057Z,10
2017-04-06T11:33:18.410Z,10
2017-04-06T11:34:21.261Z,10
2017-04-06T11:35:24.467Z,10
2017-04-06T11:36:26.311Z,9.9
2017-04-06T11:37:29.158Z,10
2017-04-06T11:38:31.513Z,9.9
2017-04-06T11:39:34.363Z,10
2017-04-06T11:40:37.514Z,10
2017-04-06T11:41:39.862Z,10
2017-04-06T11:43:45.111Z,10.1
2017-04-06T11:44:47.461Z,10.1
2017-04-06T11:45:50.563Z,10.1
2017-04-06T11:46:52.905Z,10.1
2017-04-06T11:47:55.754Z,10.1
2017-04-06T11:48:58.169Z,10.1
2017-04-06T11:50:01.020Z,10.1
2017-04-06T11:51:03.620Z,10.2
2017-04-06T11:52:06.470Z,10.2
2017-04-06T11:53:08.817Z,10.2
2017-04-06T11:54:11.670Z,10.2
2017-04-06T11:55:14.017Z,10.2
2017-04-06T11:56:17.117Z,10.2
2017-04-06T11:57:19.334Z,10.1
2017-04-06T11:58:22.183Z,10.1
2017-04-06T11:59:25.439Z,10.1
2017-04-06T12:00:27.282Z,10
2017-04-06T12:01:30.943Z,10
2017-04-06T12:02:32.517Z,10
2017-04-06T12:03:35.364Z,10
2017-04-06T12:04:38.211Z,10
2017-04-06T12:05:40.420Z,10.1
2017-04-06T12:06:43.569Z,10.1
2017-04-06T12:07:45.911Z,10.1
2017-04-06T12:08:48.759Z,10.1
2017-04-06T12:09:51.609Z,10.2
2017-04-06T12:10:53.959Z,10.3
2017-04-06T12:11:57.113Z,10.2
2017-04-06T12:12:59.463Z,10.2
2017-04-06T12:14:02.316Z,10.1
2017-04-06T12:15:04.662Z,10.1
2017-04-06T12:16:07.515Z,10.1
2017-04-06T12:17:10.173Z,10.1
2017-04-06T12:18:12.522Z,10.2
2017-04-06T12:19:15.940Z,10.2
2017-04-06T12:20:17.796Z,10.2
2017-04-06T12:21:20.649Z,10.2
2017-04-06T12:22:24.228Z,10.3
2017-04-06T12:23:26.073Z,10.3
2017-04-06T12:24:28.420Z,10.3
2017-04-06T12:25:31.267Z,10.3
2017-04-06T12:26:33.855Z,10.3
2017-04-06T12:27:36.952Z,10.3
2017-04-06T12:28:39.299Z,10.3
2017-04-06T12:29:42.164Z,10.4
2017-04-06T12:30:44.509Z,10.4
2017-04-06T12:31:47.225Z,10.4
2017-04-06T12:32:50.323Z,10.3
2017-04-06T12:33:53.232Z,10.3
2017-04-06T12:34:55.074Z,10.3
2017-04-06T12:35:57.927Z,10.3
2017-04-06T12:38:03.489Z,10.3
2017-04-06T12:39:06.396Z,10.3
2017-04-06T12:40:09.316Z,10.3
2017-04-06T12:41:11.022Z,10.3
2017-04-06T12:43:17.080Z,10.3
2017-04-06T12:44:19.423Z,10.3
2017-04-06T12:45:21.772Z,10.3
2017-04-06T12:47:26.893Z,10.4
2017-04-06T12:48:29.997Z,10.5
2017-04-06T12:49:32.345Z,10.5
2017-04-06T12:50:35.068Z,10.5
2017-04-06T12:51:37.650Z,10.5
2017-04-06T12:52:40.503Z,10.6
2017-04-06T12:53:43.655Z,10.6
2017-04-06T12:54:45.997Z,10.6
2017-04-06T12:55:48.212Z,10.6
2017-04-06T12:56:51.066Z,10.7
2017-04-06T12:57:53.786Z,10.7
2017-04-06T12:58:56.808Z,10.7
2017-04-06T12:59:59.172Z,10.7
2017-04-06T13:01:02.022Z,10.8
2017-04-06T13:03:07.836Z,10.7
2017-04-06T13:04:09.934Z,10.8
2017-04-06T13:05:12.275Z,10.8
2017-04-06T13:06:15.126Z,10.8
2017-04-06T13:07:17.984Z,10.7
2017-04-06T13:08:20.196Z,10.7
2017-04-06T13:09:23.356Z,10.6
2017-04-06T13:10:25.703Z,10.6
2017-04-06T13:11:28.614Z,10.5
2017-04-06T13:12:31.332Z,10.5
2017-04-06T13:13:33.559Z,10.5
2017-04-06T13:14:36.711Z,10.5
2017-04-06T13:15:39.058Z,10.6
2017-04-06T13:16:41.779Z,10.6
2017-04-06T13:17:44.629Z,10.6
2017-04-06T13:18:47.011Z,10.6
2017-04-06T13:19:49.976Z,10.7
2017-04-06T13:20:52.692Z,10.8
2017-04-06T13:21:54.911Z,10.8
2017-04-06T13:22:57.765Z,10.8
2017-04-06T13:24:00.619Z,10.8
2017-04-06T13:25:03.270Z,10.9
2017-04-06T13:26:05.992Z,10.9
2017-04-06T13:27:08.345Z,11
2017-04-06T13:28:11.198Z,10.9
2017-04-06T13:29:14.048Z,10.9
2017-04-06T13:30:16.643Z,10.9
2017-04-06T13:31:19.360Z,10.9
2017-04-06T13:32:21.704Z,10.9
2017-04-06T13:33:24.417Z,10.8
2017-04-06T13:34:27.272Z,10.8
2017-04-06T13:35:30.241Z,10.8
2017-04-06T13:36:32.585Z,10.8
2017-04-06T13:37:35.436Z,10.7
2017-04-06T13:38:37.782Z,10.7
2017-04-06T13:39:40.631Z,10.6
2017-04-06T13:40:43.284Z,10.6
2017-04-06T13:41:46.130Z,10.6
2017-04-06T13:42:48.354Z,10.6
2017-04-06T13:43:51.208Z,10.6
2017-04-06T13:44:53.787Z,10.6
2017-04-06T13:45:56.759Z,10.6
2017-04-06T13:46:59.105Z,10.6
2017-04-06T13:48:02.016Z,10.6
2017-04-06T13:49:04.928Z,10.6
2017-04-06T13:51:09.993Z,10.6
2017-04-06T13:52:12.344Z,10.6
2017-04-06T13:53:15.060Z,10.5
2017-04-06T13:54:17.907Z,10.5
2017-04-06T13:55:20.753Z,10.6
2017-04-06T13:56:23.401Z,10.6
2017-04-06T13:57:25.749Z,10.6
2017-04-06T13:58:28.464Z,10.6
2017-04-06T13:59:31.312Z,10.6
2017-04-06T14:00:34.026Z,10.6
2017-04-06T14:01:36.995Z,10.6
2017-04-06T14:02:39.346Z,10.6
2017-04-06T14:03:42.197Z,10.6
2017-04-06T14:04:44.544Z,10.7
2017-04-06T14:05:47.395Z,10.7
2017-04-06T14:06:50.924Z,10.7
2017-04-06T14:07:52.767Z,10.7
2017-04-06T14:08:55.109Z,10.7
2017-04-06T14:09:57.994Z,10.8
2017-04-06T14:11:00.847Z,10.8
2017-04-06T14:12:03.555Z,10.8
2017-04-06T14:13:05.910Z,10.8
2017-04-06T14:14:08.763Z,10.8
2017-04-06T14:15:11.173Z,10.8
2017-04-06T14:16:14.024Z,10.9
2017-04-06T14:17:17.045Z,11
2017-04-06T14:18:19.397Z,11
2017-04-06T14:20:24.654Z,11
2017-04-06T14:21:27.503Z,11
2017-04-06T14:22:30.388Z,11
2017-04-06T14:23:32.728Z,11.1
2017-04-06T14:24:35.144Z,11.1
2017-04-06T14:25:37.994Z,11.1
2017-04-06T14:26:41.268Z,11
2017-04-06T14:27:44.482Z,11
2017-04-06T14:28:46.189Z,11
2017-04-06T14:29:48.535Z,11.1
2017-04-06T14:30:51.386Z,11.1
2017-04-06T14:31:54.241Z,11.1
2017-04-06T14:33:59.808Z,11
2017-04-06T14:35:02.171Z,11
2017-04-06T14:36:05.023Z,11
2017-04-06T14:37:07.237Z,11
2017-04-06T14:38:11.219Z,11
2017-04-06T14:39:13.184Z,11
2017-04-06T14:40:15.606Z,11
2017-04-06T14:41:17.951Z,11
2017-04-06T14:42:20.802Z,11
2017-04-06T14:43:23.650Z,11
2017-04-06T14:44:26.298Z,11
2017-04-06T14:45:29.216Z,11
2017-04-06T14:46:31.559Z,11
2017-04-06T14:47:34.404Z,11
2017-04-06T14:48:37.118Z,11
2017-04-06T14:49:39.766Z,11
2017-04-06T14:50:42.114Z,11
2017-04-06T14:52:47.370Z,11.1
2017-04-06T14:53:50.227Z,11.1
2017-04-06T14:54:53.376Z,11.1
2017-04-06T14:55:55.723Z,11.1
2017-04-06T14:56:58.126Z,11.1
2017-04-06T14:58:00.972Z,11.1
2017-04-06T14:59:04.384Z,11.1
2017-04-06T15:00:06.399Z,11